Time;durP1;ratioP1;P1;durP2;ratioP2;P2;SDS_P1;SDS_P2;PMS_P1;PMS_P2;Temp;Humidity;BMP_temperature;BMP_pressure;BME280_temperature;BME280_humidity;BME280_pressure;Samples;Min_cycle;Max_cycle;Signal;HPM_P1;HPM_P2
2022/11/15 00:00:09;;;;;;;32.15;21.95;;;8.00;99.90;;;;;;5071977;28;20040;-49
2022/11/15 00:02:35;;;;;;;32.15;21.70;;;8.00;99.90;;;;;;5071901;28;20044;-50
2022/11/15 00:05:01;;;;;;;34.30;21.40;;;7.90;99.90;;;;;;5071694;28;20083;-51
2022/11/15 00:07:26;;;;;;;31.67;21.20;;;7.90;99.90;;;;;;5071633;28;20090;-48
2022/11/15 00:09:52;;;;;;;32.58;20.98;;;7.80;99.90;;;;;;5071871;28;20045;-47
2022/11/15 00:12:18;;;;;;;33.65;20.88;;;7.80;99.90;;;;;;5070303;28;20059;-46
2022/11/15 00:14:43;;;;;;;32.60;21.25;;;7.80;99.90;;;;;;5071636;28;20109;-51
2022/11/15 00:17:09;;;;;;;35.17;21.25;;;7.80;99.90;;;;;;5071664;28;20033;-49
2022/11/15 00:19:34;;;;;;;30.25;20.55;;;7.70;99.90;;;;;;5071503;28;20144;-48
2022/11/15 00:22:00;;;;;;;30.08;20.27;;;7.80;99.90;;;;;;5071698;28;20116;-48
2022/11/15 00:24:26;;;;;;;31.48;20.38;;;7.60;99.90;;;;;;5072038;28;20052;-48
2022/11/15 00:26:51;;;;;;;31.75;19.17;;;7.60;99.90;;;;;;5070271;28;20132;-47
2022/11/15 00:29:17;;;;;;;31.90;20.73;;;7.60;99.90;;;;;;5071606;28;20072;-51
2022/11/15 00:31:43;;;;;;;30.42;20.35;;;7.50;99.90;;;;;;5071611;28;20037;-50
2022/11/15 00:34:10;;;;;;;28.65;19.13;;;7.40;99.90;;;;;;5071486;28;20036;-47
2022/11/15 00:36:36;;;;;;;30.65;20.95;;;7.40;99.90;;;;;;5069860;28;20119;-47
2022/11/15 00:39:05;;;;;;;31.65;20.73;;;7.40;99.90;;;;;;5071436;28;20044;-49
2022/11/15 00:41:31;;;;;;;33.55;19.92;;;7.40;99.90;;;;;;5071098;28;20546;-49
2022/11/15 00:43:56;;;;;;;28.67;20.40;;;7.30;99.90;;;;;;5070476;28;20040;-50
2022/11/15 00:46:22;;;;;;;32.28;21.25;;;7.50;99.90;;;;;;5071421;28;20522;-49
2022/11/15 00:48:48;;;;;;;30.35;21.83;;;7.50;99.90;;;;;;5074304;28;20068;-52
2022/11/15 00:51:13;;;;;;;31.52;20.33;;;7.40;99.90;;;;;;5074778;28;20040;-48
2022/11/15 00:53:39;;;;;;;31.55;21.13;;;7.40;99.90;;;;;;5074827;28;20052;-51
2022/11/15 00:56:05;;;;;;;34.88;21.48;;;7.50;99.90;;;;;;5074934;28;20043;-50
2022/11/15 00:58:31;;;;;;;33.40;20.83;;;7.60;99.90;;;;;;5058512;28;20063;-49
2022/11/15 01:00:56;;;;;;;34.65;22.63;;;7.50;99.90;;;;;;5054662;28;20082;-52
2022/11/15 01:03:22;;;;;;;29.88;19.88;;;7.50;99.90;;;;;;5054859;28;20053;-49
2022/11/15 01:05:48;;;;;;;29.63;19.52;;;7.50;99.90;;;;;;5054688;28;20076;-51
2022/11/15 01:08:15;;;;;;;31.88;20.65;;;7.60;99.90;;;;;;5053412;28;20051;-48
2022/11/15 01:10:41;;;;;;;31.85;20.40;;;7.60;99.90;;;;;;5054651;28;20409;-47
2022/11/15 01:13:06;;;;;;;29.15;20.20;;;7.60;99.90;;;;;;5053181;28;20045;-46
2022/11/15 01:15:32;;;;;;;27.45;19.17;;;7.60;99.90;;;;;;5053346;28;20055;-46
2022/11/15 01:17:58;;;;;;;30.73;20.60;;;7.70;99.90;;;;;;5053099;28;20115;-50
2022/11/15 01:20:23;;;;;;;30.52;20.85;;;7.70;99.90;;;;;;5054222;28;20105;-50
2022/11/15 01:22:49;;;;;;;31.58;20.95;;;7.70;99.90;;;;;;5054163;28;20053;-50
2022/11/15 01:25:15;;;;;;;32.28;20.80;;;7.70;99.90;;;;;;5054368;28;20040;-60
2022/11/15 01:27:40;;;;;;;30.13;19.92;;;7.60;99.90;;;;;;5054092;28;20053;-60
2022/11/15 01:30:08;;;;;;;29.20;20.17;;;7.70;99.90;;;;;;5053278;28;20080;-60
2022/11/15 01:32:33;;;;;;;30.85;21.05;;;7.60;99.90;;;;;;5054135;28;20060;-60
2022/11/15 01:34:59;;;;;;;28.52;19.33;;;7.70;99.90;;;;;;5054149;28;20041;-60
2022/11/15 01:37:24;;;;;;;33.80;22.00;;;7.60;99.90;;;;;;5054094;28;20048;-61
2022/11/15 01:39:50;;;;;;;30.85;21.42;;;7.70;99.90;;;;;;5054240;28;20041;-60
2022/11/15 01:42:16;;;;;;;30.83;20.77;;;7.70;99.90;;;;;;5066235;28;20051;-61
2022/11/15 01:44:46;;;;;;;31.60;22.45;;;7.60;99.90;;;;;;5074133;28;20405;-61
2022/11/15 01:47:17;;;;;;;31.17;21.63;;;7.80;99.90;;;;;;5074023;28;20093;-61
2022/11/15 01:49:56;;;;;;;32.58;23.25;;;7.70;99.90;;;;;;5074052;28;20079;-60
2022/11/15 01:52:25;;;;;;;31.60;22.95;;;7.60;99.90;;;;;;5072578;28;20044;-60
2022/11/15 01:54:56;;;;;;;33.97;22.40;;;7.70;99.90;;;;;;5073711;28;20052;-60
2022/11/15 01:57:22;;;;;;;29.83;23.23;;;7.70;99.90;;;;;;5067291;28;20052;-61
2022/11/15 01:59:48;;;;;;;32.85;24.17;;;7.60;99.90;;;;;;5053123;28;20044;-60
2022/11/15 02:02:14;;;;;;;35.30;25.30;;;7.60;99.90;;;;;;5053423;28;20041;-61
2022/11/15 02:04:45;;;;;;;35.47;23.67;;;7.60;99.90;;;;;;5052233;28;20095;-61
2022/11/15 02:07:16;;;;;;;37.55;24.27;;;7.50;99.90;;;;;;5053383;28;20047;-61
2022/11/15 02:09:43;;;;;;;37.45;24.13;;;7.60;99.90;;;;;;5052111;28;20045;-60
2022/11/15 02:12:12;;;;;;;36.38;24.25;;;7.50;99.90;;;;;;5053131;28;20049;-61
2022/11/15 02:14:41;;;;;;;35.63;24.48;;;7.40;99.90;;;;;;5053249;28;20076;-61
2022/11/15 02:17:40;;;;;;;34.35;23.15;;;7.40;99.90;;;;;;5053502;28;20130;-61
2022/11/15 02:20:51;;;;;;;36.58;22.35;;;7.50;99.90;;;;;;5053174;28;20093;-61
2022/11/15 02:24:17;;;;;;;31.65;21.75;;;7.50;99.90;;;;;;5053272;28;20043;-60
2022/11/15 02:26:56;;;;;;;35.00;22.38;;;7.40;99.90;;;;;;5019157;28;20136;-61
2022/11/15 02:29:43;;;;;;;36.13;23.30;;;7.40;99.90;;;;;;5053001;28;20079;-61
2022/11/15 02:32:18;;;;;;;35.42;21.95;;;7.40;99.90;;;;;;5051566;28;20099;-61
2022/11/15 02:35:20;;;;;;;36.85;22.85;;;7.40;99.90;;;;;;5053243;28;20041;-61
2022/11/15 02:37:56;;;;;;;34.47;22.05;;;7.30;99.90;;;;;;5052832;28;20036;-61
2022/11/15 02:40:30;;;;;;;33.10;21.60;;;7.30;99.90;;;;;;5053161;28;20041;-61
2022/11/15 02:45:54;;;;;;;33.25;20.25;;;7.20;99.90;;;;;;5052547;28;20496;-61
2022/11/15 02:48:22;;;;;;;32.40;19.50;;;7.40;99.90;;;;;;5052843;28;20053;-61
2022/11/15 02:50:48;;;;;;;32.72;19.92;;;7.30;99.90;;;;;;5052683;28;20271;-61
2022/11/15 02:53:15;;;;;;;34.10;20.17;;;7.30;99.90;;;;;;5051423;28;20519;-60
2022/11/15 02:55:47;;;;;;;32.08;20.02;;;7.40;99.90;;;;;;5052980;28;20182;-60
2022/11/15 02:58:50;;;;;;;33.78;20.02;;;7.30;99.90;;;;;;5065857;28;20036;-63
2022/11/15 03:01:34;;;;;;;35.50;20.95;;;7.30;99.90;;;;;;5072588;28;20044;-61
2022/11/15 03:04:39;;;;;;;37.33;21.17;;;7.40;99.90;;;;;;5071966;28;20083;-59
2022/11/15 03:07:19;;;;;;;36.13;21.10;;;7.40;99.90;;;;;;5072480;28;20040;-61
2022/11/15 03:09:53;;;;;;;38.05;22.50;;;7.30;99.90;;;;;;5071776;28;20357;-60
2022/11/15 03:12:36;;;;;;;38.72;21.13;;;7.40;99.90;;;;;;5070581;28;20094;-60
2022/11/15 03:15:18;;;;;;;38.00;21.33;;;7.30;99.90;;;;;;5072236;28;20080;-60
2022/11/15 03:18:00;;;;;;;38.55;21.55;;;7.50;99.90;;;;;;5072588;28;20036;-61
2022/11/15 03:20:27;;;;;;;38.70;22.75;;;7.40;99.90;;;;;;5071268;28;20064;-61
2022/11/15 03:22:56;;;;;;;38.45;22.58;;;7.40;99.90;;;;;;5072149;28;20048;-60
2022/11/15 03:25:26;;;;;;;37.25;22.45;;;7.50;99.90;;;;;;5071896;28;20385;-61
2022/11/15 03:27:55;;;;;;;36.33;23.23;;;7.40;99.90;;;;;;5072347;28;20045;-61
2022/11/15 03:30:21;;;;;;;40.10;22.55;;;7.40;99.90;;;;;;5072107;28;20511;-61
2022/11/15 03:32:58;;;;;;;40.92;23.75;;;7.50;99.90;;;;;;5071902;28;20041;-61
2022/11/15 03:35:27;;;;;;;40.53;22.23;;;7.40;99.90;;;;;;5071933;28;20047;-61
2022/11/15 03:38:21;;;;;;;41.65;23.73;;;7.30;99.90;;;;;;5071752;28;20052;-61
2022/11/15 03:40:59;;;;;;;38.30;20.65;;;7.50;99.90;;;;;;5072125;28;20125;-60
2022/11/15 03:43:28;;;;;;;37.15;22.42;;;7.50;99.90;;;;;;5071857;28;20445;-61
2022/11/15 03:46:00;;;;;;;43.75;22.42;;;7.30;99.90;;;;;;5070655;28;20047;-61
2022/11/15 03:48:33;;;;;;;41.38;22.75;;;7.40;99.90;;;;;;5071706;28;20044;-61
2022/11/15 03:50:59;;;;;;;39.00;22.23;;;7.30;99.90;;;;;;5070770;28;20037;-61
2022/11/15 03:53:25;;;;;;;37.38;21.27;;;7.50;99.90;;;;;;5071920;28;20048;-61
2022/11/15 03:55:50;;;;;;;42.22;22.05;;;7.50;99.90;;;;;;5071804;28;20373;-61
2022/11/15 03:58:16;;;;;;;35.85;22.55;;;7.50;99.90;;;;;;5057285;28;20041;-61
2022/11/15 04:00:42;;;;;;;42.80;22.67;;;7.50;99.90;;;;;;5051879;28;20582;-61
2022/11/15 04:03:07;;;;;;;42.72;23.55;;;7.40;99.90;;;;;;5051559;28;20545;-60
2022/11/15 04:05:33;;;;;;;43.95;23.30;;;7.70;99.90;;;;;;5052006;28;20403;-61
2022/11/15 04:07:59;;;;;;;43.83;23.52;;;7.70;99.90;;;;;;5050340;28;20044;-60
2022/11/15 04:10:25;;;;;;;41.63;21.52;;;7.80;99.90;;;;;;5051584;28;20041;-61
2022/11/15 04:12:50;;;;;;;40.08;22.38;;;7.70;99.90;;;;;;5033693;28;20396;-61
2022/11/15 04:15:19;;;;;;;38.95;21.88;;;7.80;99.90;;;;;;5051746;28;20144;-61
2022/11/15 04:17:52;;;;;;;41.78;21.83;;;7.60;99.90;;;;;;5051317;28;20041;-61
2022/11/15 04:25:59;;;;;;;39.95;21.73;;;7.80;99.90;;;;;;5055299;28;20055;-61
2022/11/15 04:28:25;;;;;;;42.50;22.60;;;7.90;99.90;;;;;;5055389;28;20055;-61
2022/11/15 04:30:51;;;;;;;40.70;22.10;;;7.70;99.90;;;;;;5055146;28;20041;-61
2022/11/15 04:33:17;;;;;;;44.58;22.55;;;7.80;99.90;;;;;;5055167;28;20037;-61
2022/11/15 04:35:43;;;;;;;44.30;23.20;;;7.80;99.90;;;;;;5055173;28;20111;-61
2022/11/15 04:38:10;;;;;;;48.10;23.90;;;7.70;99.90;;;;;;5054036;28;20123;-61
2022/11/15 04:40:37;;;;;;;45.10;23.10;;;7.90;99.90;;;;;;5054714;28;20036;-60
2022/11/15 04:43:03;;;;;;;41.70;21.92;;;8.00;99.90;;;;;;5054909;28;20052;-62
2022/11/15 04:45:29;;;;;;;46.17;23.83;;;7.90;99.90;;;;;;5053850;28;20041;-61
2022/11/15 04:47:55;;;;;;;43.72;22.77;;;7.80;99.90;;;;;;5037115;28;20045;-61
2022/11/15 04:50:20;;;;;;;47.17;23.27;;;7.90;99.90;;;;;;5053906;28;20106;-61
2022/11/15 04:52:53;;;;;;;46.97;23.17;;;8.10;99.90;;;;;;5055081;28;20053;-61
2022/11/15 04:55:20;;;;;;;40.20;22.15;;;7.90;99.90;;;;;;5054927;28;20033;-62
2022/11/15 04:57:45;;;;;;;42.85;23.77;;;7.80;99.90;;;;;;5054664;28;20504;-61
2022/11/15 05:00:15;;;;;;;45.30;24.25;;;8.00;99.90;;;;;;5053337;28;20041;-61
2022/11/15 05:05:25;;;;;;;44.55;22.67;;;8.10;99.90;;;;;;5054505;28;20405;-49
2022/11/15 05:07:50;;;;;;;45.88;22.58;;;8.00;99.90;;;;;;5054564;28;20041;-47
2022/11/15 05:10:16;;;;;;;49.95;24.33;;;7.90;99.90;;;;;;5054695;28;20048;-49
2022/11/15 05:12:42;;;;;;;45.25;23.50;;;8.10;99.90;;;;;;5053437;28;20094;-51
2022/11/15 05:15:08;;;;;;;48.13;23.77;;;8.10;99.90;;;;;;5054490;28;20037;-50
2022/11/15 05:17:34;;;;;;;45.30;24.33;;;7.80;99.90;;;;;;5054417;28;20037;-47
2022/11/15 05:19:59;;;;;;;52.63;25.35;;;7.90;99.90;;;;;;5054164;28;20111;-50
2022/11/15 05:22:26;;;;;;;45.72;23.00;;;7.80;99.90;;;;;;5054293;28;20582;-48
2022/11/15 05:24:52;;;;;;;50.30;24.25;;;8.20;99.90;;;;;;5054048;28;20049;-48
2022/11/15 05:27:17;;;;;;;48.42;25.40;;;8.20;99.90;;;;;;5054384;28;20090;-50
2022/11/15 05:29:43;;;;;;;48.35;24.40;;;8.10;99.90;;;;;;5052780;28;20037;-51
2022/11/15 05:32:10;;;;;;;54.05;26.23;;;8.00;99.90;;;;;;5054396;28;20129;-49
2022/11/15 05:34:35;;;;;;;47.85;23.65;;;8.30;99.90;;;;;;5053018;28;20034;-50
2022/11/15 05:37:01;;;;;;;53.17;26.73;;;8.40;99.90;;;;;;5036405;28;20055;-51
2022/11/15 05:39:27;;;;;;;64.85;27.23;;;8.00;99.90;;;;;;5054102;28;20553;-48
2022/11/15 05:42:01;;;;;;;56.67;26.83;;;8.00;99.90;;;;;;5052943;28;20455;-49
2022/11/15 05:44:27;;;;;;;52.38;26.83;;;8.20;99.90;;;;;;5054013;28;20076;-51
2022/11/15 05:46:54;;;;;;;57.47;26.33;;;8.50;99.90;;;;;;5054050;28;20076;-50
2022/11/15 05:49:24;;;;;;;72.03;30.38;;;8.00;99.90;;;;;;5053782;28;20120;-51
2022/11/15 05:51:51;;;;;;;64.57;28.48;;;8.20;99.90;;;;;;5052478;28;20102;-47
2022/11/15 05:54:19;;;;;;;62.85;28.58;;;8.30;99.90;;;;;;5053750;28;20544;-52
2022/11/15 05:56:45;;;;;;;61.58;28.88;;;8.50;99.90;;;;;;5055298;28;20037;-48
2022/11/15 05:59:11;;;;;;;66.82;30.50;;;8.00;99.90;;;;;;5073739;28;20042;-46
2022/11/15 06:01:37;;;;;;;70.45;30.60;;;8.10;99.90;;;;;;5073386;28;20036;-50
2022/11/15 06:04:03;;;;;;;65.05;31.73;;;8.10;99.90;;;;;;5073442;28;20537;-52
2022/11/15 06:06:29;;;;;;;66.95;31.00;;;8.20;99.90;;;;;;5072377;28;20052;-50
2022/11/15 06:08:54;;;;;;;74.47;31.38;;;8.10;99.90;;;;;;5073141;28;20039;-50
2022/11/15 06:11:20;;;;;;;74.07;31.00;;;8.60;99.90;;;;;;5073195;28;20051;-51
2022/11/15 06:13:45;;;;;;;74.82;32.25;;;8.70;99.90;;;;;;5073643;28;20450;-49
2022/11/15 06:16:11;;;;;;;71.65;31.20;;;8.20;99.90;;;;;;5073201;28;20439;-46
2022/11/15 06:18:37;;;;;;;77.90;34.05;;;8.60;99.90;;;;;;5073031;28;20523;-46
2022/11/15 06:21:04;;;;;;;76.97;32.55;;;8.70;99.90;;;;;;5073390;28;20045;-48
2022/11/15 06:23:33;;;;;;;86.07;33.47;;;8.50;99.90;;;;;;5073252;28;20115;-47
2022/11/15 06:26:00;;;;;;;80.55;31.98;;;8.60;99.90;;;;;;5073257;28;20047;-47
2022/11/15 06:28:31;;;;;;;83.55;32.90;;;8.80;99.90;;;;;;5073184;28;20087;-48
2022/11/15 06:31:03;;;;;;;71.82;30.67;;;8.60;99.90;;;;;;5072774;28;20072;-48
2022/11/15 06:33:28;;;;;;;83.22;32.25;;;8.80;99.90;;;;;;5073029;28;20045;-46
2022/11/15 06:35:54;;;;;;;83.70;33.75;;;8.50;99.90;;;;;;5072752;28;20047;-50
2022/11/15 06:38:20;;;;;;;83.82;33.30;;;8.40;99.90;;;;;;5071501;28;20119;-48
2022/11/15 06:40:45;;;;;;;84.50;33.47;;;8.30;99.90;;;;;;5072182;28;20043;-47
2022/11/15 06:43:11;;;;;;;82.15;32.72;;;8.60;99.90;;;;;;5072246;28;20055;-48
2022/11/15 06:45:37;;;;;;;84.22;34.05;;;8.90;99.90;;;;;;5070545;28;20055;-49
2022/11/15 06:48:02;;;;;;;88.82;34.92;;;9.00;99.90;;;;;;5071913;28;20123;-47
2022/11/15 06:50:28;;;;;;;79.05;32.55;;;8.40;99.90;;;;;;5070412;28;20102;-50
2022/11/15 06:52:54;;;;;;;85.32;33.83;;;8.40;99.90;;;;;;5071669;28;20417;-48
2022/11/15 06:55:20;;;;;;;80.57;32.88;;;8.80;99.90;;;;;;5071613;28;20048;-48
2022/11/15 06:57:52;;;;;;;84.03;32.55;;;8.70;99.90;;;;;;5061459;28;20040;-51
2022/11/15 07:00:19;;;;;;;;;;;8.50;99.90;;;;;;5059930;28;20040;-46
2022/11/15 07:02:45;;;;;;;79.45;32.50;;;9.20;99.90;;;;;;5062050;28;19917;-47
2022/11/15 07:05:11;;;;;;;68.72;32.58;;;9.10;99.90;;;;;;5067531;28;20044;-47
2022/11/15 07:07:37;;;;;;;85.85;33.53;;;8.80;99.90;;;;;;5070264;28;20421;-47
2022/11/15 07:10:03;;;;;;;82.50;33.83;;;9.40;99.90;;;;;;5071216;28;20090;-51
2022/11/15 07:12:29;;;;;;;86.25;34.40;;;8.80;99.90;;;;;;5071372;28;20091;-49
2022/11/15 07:14:56;;;;;;;99.90;36.22;;;8.70;99.90;;;;;;5071254;28;20135;-49
2022/11/15 07:17:22;;;;;;;78.70;31.90;;;8.80;99.90;;;;;;5071501;28;20135;-49
2022/11/15 07:19:47;;;;;;;81.07;34.20;;;9.00;99.90;;;;;;5071270;28;20052;-49
2022/11/15 07:22:13;;;;;;;87.28;34.15;;;8.90;99.90;;;;;;5071425;28;20040;-51
2022/11/15 07:24:39;;;;;;;93.80;35.55;;;9.70;99.90;;;;;;5071362;28;20044;-50
2022/11/15 07:27:04;;;;;;;95.75;36.47;;;8.90;99.90;;;;;;5071258;28;20094;-47
2022/11/15 07:29:30;;;;;;;89.30;36.63;;;8.90;99.90;;;;;;5071455;28;20123;-46
2022/11/15 07:31:55;;;;;;;85.95;34.75;;;9.70;99.90;;;;;;5070935;28;20119;-50
2022/11/15 07:34:21;;;;;;;96.28;35.63;;;9.00;99.90;;;;;;5060843;28;20044;-48
2022/11/15 07:36:47;;;;;;;94.75;39.35;;;9.00;99.90;;;;;;5061050;28;20444;-47
2022/11/15 07:39:13;;;;;;;82.63;34.03;;;9.80;99.90;;;;;;5069942;28;20127;-50
2022/11/15 07:41:39;;;;;;;89.10;37.47;;;9.70;99.90;;;;;;5071283;28;20049;-49
2022/11/15 07:44:05;;;;;;;89.90;38.10;;;9.00;99.90;;;;;;5071081;28;20040;-46
2022/11/15 07:46:31;;;;;;;87.18;36.10;;;9.60;99.90;;;;;;5070744;28;20040;-50
2022/11/15 07:48:57;;;;;;;84.43;34.78;;;9.10;99.90;;;;;;5069266;28;20044;-50
2022/11/15 07:51:23;;;;;;;88.35;37.33;;;9.20;99.90;;;;;;5070899;28;20045;-51
2022/11/15 07:53:48;;;;;;;88.82;35.95;;;9.90;99.90;;;;;;5052307;28;20477;-52
2022/11/15 07:56:14;;;;;;;90.13;38.30;;;9.60;99.90;;;;;;5070655;28;20059;-49
2022/11/15 07:58:40;;;;;;;86.13;36.53;;;9.90;99.90;;;;;;5055155;28;20043;-48
2022/11/15 08:01:07;;;;;;;89.78;35.83;;;9.40;99.90;;;;;;5054177;28;20044;-46
2022/11/15 08:03:33;;;;;;;89.70;37.28;;;9.60;99.90;;;;;;5054706;28;20048;-46
2022/11/15 08:05:59;;;;;;;84.70;36.92;;;9.60;99.90;;;;;;5054044;28;20381;-49
2022/11/15 08:08:24;;;;;;;92.93;39.13;;;9.50;99.90;;;;;;5064621;28;20143;-47
2022/11/15 08:10:50;;;;;;;80.18;35.22;;;10.20;99.90;;;;;;5066030;28;20377;-47
2022/11/15 08:13:16;;;;;;;87.72;36.53;;;9.40;99.90;;;;;;5063326;28;20435;-48
2022/11/15 08:15:42;;;;;;;78.88;34.33;;;9.60;99.90;;;;;;5065601;28;20573;-47
2022/11/15 08:18:16;;;;;;;75.68;34.67;;;9.50;99.90;;;;;;5063591;28;20033;-50
2022/11/15 08:20:42;;;;;;;81.63;34.17;;;10.20;99.90;;;;;;5063169;28;20119;-46
2022/11/15 08:23:10;;;;;;;76.95;33.72;;;9.40;99.90;;;;;;5064253;28;20043;-50
2022/11/15 08:25:37;;;;;;;75.82;33.50;;;10.20;99.90;;;;;;5062109;28;20041;-49
2022/11/15 08:28:05;;;;;;;72.22;33.78;;;10.30;99.90;;;;;;5070897;28;20044;-48
2022/11/15 08:30:36;;;;;;;78.55;33.75;;;9.40;99.90;;;;;;5073747;28;20051;-47
2022/11/15 08:33:02;;;;;;;72.40;32.75;;;10.20;99.90;;;;;;5074234;28;20466;-52
2022/11/15 08:35:28;;;;;;;78.75;36.67;;;9.60;99.90;;;;;;5074440;28;20174;-48
2022/11/15 08:37:54;;;;;;;75.75;35.13;;;10.30;99.90;;;;;;5074321;28;20162;-49
2022/11/15 08:40:20;;;;;;;76.40;34.45;;;9.60;99.90;;;;;;5054203;28;20483;-52
2022/11/15 08:42:47;;;;;;;68.90;33.17;;;9.70;99.90;;;;;;5053983;28;20120;-51
2022/11/15 08:45:13;;;;;;;75.53;34.25;;;9.70;99.90;;;;;;5052817;28;20099;-47
2022/11/15 08:47:38;;;;;;;72.90;33.40;;;10.60;99.90;;;;;;5053986;28;20426;-51
2022/11/15 08:50:05;;;;;;;76.22;34.00;;;9.70;99.90;;;;;;5054106;28;20099;-51
2022/11/15 08:52:31;;;;;;;73.50;33.67;;;10.60;99.90;;;;;;5052913;28;20048;-49
2022/11/15 08:54:57;;;;;;;62.35;33.97;;;10.20;99.90;;;;;;5054169;28;20416;-52
2022/11/15 08:57:23;;;;;;;64.05;33.30;;;10.60;99.90;;;;;;5061035;28;20037;-50
2022/11/15 08:59:49;;;;;;;71.40;33.90;;;10.70;99.90;;;;;;5073634;28;20040;-49
2022/11/15 09:02:15;;;;;;;64.25;34.20;;;10.60;99.90;;;;;;5073909;28;20036;-49
2022/11/15 09:04:43;;;;;;;68.55;33.30;;;11.00;99.90;;;;;;5073658;28;20044;-47
2022/11/15 09:07:10;;;;;;;67.22;33.95;;;10.00;99.90;;;;;;5073632;28;20044;-47
2022/11/15 09:09:36;;;;;;;56.05;29.92;;;10.90;99.90;;;;;;5072099;28;20045;-54
2022/11/15 09:12:02;;;;;;;60.78;30.92;;;9.90;99.90;;;;;;5073261;28;20067;-54
2022/11/15 09:14:28;;;;;;;58.95;32.08;;;11.00;99.90;;;;;;5072991;28;20480;-50
2022/11/15 09:16:54;;;;;;;57.53;31.05;;;10.60;99.90;;;;;;5073280;28;20055;-51
2022/11/15 09:19:19;;;;;;;53.72;30.20;;;10.50;99.90;;;;;;5072234;28;20485;-47
2022/11/15 09:21:45;;;;;;;53.97;30.02;;;10.90;99.90;;;;;;5072195;28;20083;-49
2022/11/15 09:24:11;;;;;;;54.75;31.48;;;10.80;99.90;;;;;;5073375;28;20052;-48
2022/11/15 09:26:36;;;;;;;49.50;29.23;;;11.00;99.90;;;;;;5073408;28;20041;-47
2022/11/15 09:29:03;;;;;;;53.42;30.38;;;11.00;99.90;;;;;;5073632;28;20050;-50
2022/11/15 09:31:29;;;;;;;48.63;29.20;;;10.90;99.90;;;;;;5073548;28;20093;-47
2022/11/15 09:33:55;;;;;;;51.58;29.45;;;10.20;99.90;;;;;;5073589;28;20421;-48
2022/11/15 09:36:21;;;;;;;43.80;21.75;;;10.70;99.90;;;;;;5073282;28;20111;-48
2022/11/15 09:38:46;;;;;;;48.50;27.73;;;10.60;99.90;;;;;;5072118;28;20127;-47
2022/11/15 09:41:12;;;;;;;48.80;27.13;;;10.20;99.90;;;;;;5072042;28;20045;-49
2022/11/15 09:44:02;;;;;;;49.08;26.42;;;10.20;99.90;;;;;;5073470;28;20052;-50
2022/11/15 09:46:58;;;;;;;46.53;26.88;;;11.10;99.90;;;;;;5073233;28;20108;-48
2022/11/15 09:49:24;;;;;;;42.05;25.17;;;10.30;99.90;;;;;;5072725;28;20079;-47
2022/11/15 09:51:52;;;;;;;43.28;26.08;;;10.50;99.90;;;;;;5072380;28;20087;-47
2022/11/15 09:54:30;;;;;;;42.75;23.95;;;10.60;99.90;;;;;;5072059;28;20048;-49
2022/11/15 09:57:03;;;;;;;44.10;24.05;;;10.60;99.90;;;;;;5069323;28;20071;-46
2022/11/15 09:59:54;;;;;;;41.75;24.58;;;10.50;99.90;;;;;;5052864;28;20044;-48
2022/11/15 10:02:39;;;;;;;39.60;23.98;;;11.40;99.90;;;;;;5052894;28;20045;-48
2022/11/15 10:05:10;;;;;;;42.92;24.88;;;10.60;99.90;;;;;;5051535;28;20417;-47
2022/11/15 10:08:01;;;;;;;41.08;24.55;;;11.40;99.90;;;;;;5052607;28;20033;-49
2022/11/15 10:10:40;;;;;;;36.45;22.17;;;11.40;99.90;;;;;;5051970;28;20072;-47
2022/11/15 10:13:19;;;;;;;45.72;23.30;;;11.50;99.90;;;;;;5052405;28;20048;-49
2022/11/15 10:15:48;;;;;;;38.83;23.77;;;11.40;99.90;;;;;;5052666;28;20056;-52
2022/11/15 10:18:18;;;;;;;39.17;23.95;;;10.90;99.90;;;;;;5051816;28;20072;-52
2022/11/15 10:20:46;;;;;;;41.55;23.98;;;10.90;99.90;;;;;;5052903;28;20136;-51
2022/11/15 10:23:16;;;;;;;37.90;22.30;;;11.00;99.90;;;;;;5053258;28;20059;-50
2022/11/15 10:25:43;;;;;;;40.13;21.60;;;10.90;99.90;;;;;;5052102;28;20103;-50
2022/11/15 10:28:30;;;;;;;35.35;21.88;;;11.30;99.90;;;;;;5051898;28;20048;-51
2022/11/15 10:30:58;;;;;;;34.72;20.70;;;11.50;99.90;;;;;;5052102;28;20041;-50
2022/11/15 10:33:38;;;;;;;37.50;22.00;;;11.20;99.90;;;;;;5053147;28;20472;-50
2022/11/15 10:36:14;;;;;;;36.30;20.77;;;11.60;99.90;;;;;;5052926;28;20068;-50
2022/11/15 10:39:00;;;;;;;38.53;22.25;;;11.50;99.90;;;;;;5035119;28;20366;-48
2022/11/15 10:41:31;;;;;;;34.80;22.23;;;11.20;99.90;;;;;;5052823;28;20051;-49
2022/11/15 10:44:06;;;;;;;30.85;21.38;;;11.70;99.90;;;;;;5052968;28;20037;-47
2022/11/15 10:46:37;;;;;;;36.15;21.33;;;11.20;99.90;;;;;;5052744;28;20060;-47
2022/11/15 10:49:16;;;;;;;35.22;22.08;;;11.30;99.90;;;;;;5052769;28;20548;-52
2022/11/15 10:51:47;;;;;;;35.03;21.00;;;11.40;99.90;;;;;;5052716;28;20041;-51
2022/11/15 10:54:33;;;;;;;31.23;20.10;;;11.20;99.90;;;;;;5052436;28;20212;-54
2022/11/15 10:57:00;;;;;;;32.67;20.15;;;11.90;99.90;;;;;;5055839;28;20102;-49
2022/11/15 10:59:31;;;;;;;33.97;20.52;;;11.70;99.90;;;;;;5072484;28;20441;-51
2022/11/15 11:01:57;;;;;;;33.65;19.60;;;11.60;99.90;;;;;;5072333;28;20079;-51
2022/11/15 11:04:23;;;;;;;28.27;19.35;;;11.80;99.90;;;;;;5072398;28;20373;-49
2022/11/15 11:06:55;;;;;;;28.65;18.75;;;12.00;99.90;;;;;;5072292;28;20051;-47
2022/11/15 11:09:37;;;;;;;28.58;18.90;;;11.40;99.90;;;;;;5054381;28;20045;-48
2022/11/15 11:12:05;;;;;;;31.73;17.90;;;11.40;99.90;;;;;;5072489;28;20048;-49
2022/11/15 11:14:36;;;;;;;28.40;17.90;;;11.40;99.90;;;;;;5072265;28;20045;-50
2022/11/15 11:17:09;;;;;;;25.08;17.58;;;11.40;99.90;;;;;;5071044;28;20098;-48
2022/11/15 11:19:56;;;;;;;29.50;17.52;;;11.50;99.90;;;;;;5072102;28;20057;-47
2022/11/15 11:22:40;;;;;;;27.02;16.55;;;11.50;99.90;;;;;;5072143;28;20046;-48
2022/11/15 11:25:37;;;;;;;27.33;16.90;;;11.70;99.90;;;;;;5072113;28;20219;-48
2022/11/15 11:28:13;;;;;;;27.58;16.25;;;11.70;99.90;;;;;;5072414;28;20082;-52
2022/11/15 11:31:00;;;;;;;22.92;14.95;;;11.40;99.90;;;;;;5062812;28;20032;-48
2022/11/15 11:33:43;;;;;;;22.98;14.35;;;11.80;99.90;;;;;;5058884;28;20049;-49
2022/11/15 11:36:26;;;;;;;23.50;13.93;;;12.00;99.90;;;;;;5067811;28;20036;-47
2022/11/15 11:39:17;;;;;;;20.40;13.50;;;12.10;99.90;;;;;;5062713;28;20108;-50
2022/11/15 11:41:47;;;;;;;23.92;14.88;;;11.80;99.90;;;;;;5058941;28;20511;-48
2022/11/15 11:44:38;;;;;;;20.33;13.32;;;11.80;99.90;;;;;;5062271;28;20124;-49
2022/11/15 11:47:23;;;;;;;23.77;13.48;;;12.00;99.90;;;;;;5061092;28;20037;-47
2022/11/15 11:50:07;;;;;;;19.90;13.18;;;12.20;99.90;;;;;;5062006;28;20068;-49
2022/11/15 11:52:56;;;;;;;18.77;12.35;;;12.20;99.90;;;;;;5062633;28;20463;-49
2022/11/15 11:55:31;;;;;;;20.10;12.07;;;12.00;99.90;;;;;;5064693;28;20129;-62
2022/11/15 11:58:11;;;;;;;18.20;11.00;;;12.20;99.90;;;;;;5063330;28;20036;-62
2022/11/15 12:00:46;;;;;;;20.90;11.50;;;12.10;99.90;;;;;;5071666;28;20109;-63
2022/11/15 12:03:25;;;;;;;15.25;10.18;;;12.00;99.90;;;;;;5071622;28;20048;-62
2022/11/15 12:06:05;;;;;;;17.13;9.45;;;11.80;99.90;;;;;;5071898;28;20090;-63
2022/11/15 12:08:52;;;;;;;17.35;9.45;;;11.90;99.90;;;;;;5071339;28;20076;-62
2022/11/15 12:11:22;;;;;;;13.15;7.07;;;11.60;99.90;;;;;;5071634;28;20048;-62
2022/11/15 12:14:00;;;;;;;13.05;7.57;;;11.70;99.90;;;;;;5071533;28;20041;-68
2022/11/15 12:16:32;;;;;;;11.15;6.80;;;12.00;99.90;;;;;;5071551;28;20040;-63
2022/11/15 12:19:04;;;;;;;10.65;5.97;;;11.80;99.90;;;;;;5071396;28;20088;-62
2022/11/15 12:22:00;;;;;;;12.52;6.20;;;11.90;99.90;;;;;;5071686;28;20049;-63
2022/11/15 12:24:28;;;;;;;12.52;5.95;;;11.90;99.90;;;;;;5071735;28;20051;-62
2022/11/15 12:27:18;;;;;;;10.75;5.82;;;12.10;99.90;;;;;;5071089;28;20439;-62
2022/11/15 12:29:58;;;;;;;9.82;5.22;;;11.90;99.90;;;;;;5071667;28;20060;-62
2022/11/15 12:32:38;;;;;;;10.50;5.38;;;11.90;99.90;;;;;;5070386;28;20032;-62
2022/11/15 12:35:26;;;;;;;11.40;4.75;;;12.00;99.90;;;;;;5071576;28;20065;-62
2022/11/15 12:37:55;;;;;;;8.00;4.15;;;11.90;99.90;;;;;;5071427;28;20051;-62
2022/11/15 12:40:31;;;;;;;10.30;4.50;;;11.80;99.90;;;;;;5071479;28;20544;-62
2022/11/15 12:43:04;;;;;;;8.63;3.03;;;12.00;99.90;;;;;;5072143;28;20111;-62
2022/11/15 12:45:39;;;;;;;8.73;3.10;;;11.90;99.90;;;;;;5062828;28;20049;-62
2022/11/15 12:48:45;;;;;;;7.80;3.45;;;12.00;99.90;;;;;;5063502;28;20067;-62
2022/11/15 12:51:11;;;;;;;10.38;3.10;;;12.00;99.90;;;;;;5063775;28;20078;-62
2022/11/15 12:53:38;;;;;;;8.73;3.40;;;11.90;99.90;;;;;;5074590;28;20044;-62
2022/11/15 12:56:06;;;;;;;9.05;2.92;;;12.00;99.90;;;;;;5074529;28;20547;-62
2022/11/15 12:58:55;;;;;;;9.18;2.75;;;12.10;99.90;;;;;;5059152;28;20037;-62
2022/11/15 13:01:35;;;;;;;7.75;3.00;;;12.00;99.90;;;;;;5063037;28;20117;-62
2022/11/15 13:04:19;;;;;;;10.02;4.00;;;12.10;99.90;;;;;;5063594;28;20047;-62